Time;durP1;ratioP1;P1;durP2;ratioP2;P2;SDS_P1;SDS_P2;PMS_P1;PMS_P2;Temp;Humidity;BMP_temperature;BMP_pressure;BME280_temperature;BME280_humidity;BME280_pressure;Samples;Min_cycle;Max_cycle;Signal;HPM_P1;HPM_P2
2022/04/23 00:01:42;;;;;;;12.43;9.07;;;12.30;99.90;;;;;;5054236;28;20025;-71
2022/04/23 00:04:09;;;;;;;14.43;8.73;;;12.30;99.90;;;;;;5053925;28;20048;-72
2022/04/23 00:06:35;;;;;;;13.00;8.85;;;12.20;99.90;;;;;;5053757;28;20028;-72
2022/04/23 00:09:01;;;;;;;12.30;8.23;;;12.20;99.90;;;;;;5054185;28;20021;-72
2022/04/23 00:11:27;;;;;;;12.60;8.07;;;12.10;99.90;;;;;;5054014;28;20486;-71
2022/04/23 00:13:52;;;;;;;11.68;7.68;;;12.10;99.90;;;;;;5038543;28;20386;-70
2022/04/23 00:16:19;;;;;;;10.88;7.80;;;12.10;99.90;;;;;;5057754;28;20096;-71
2022/04/23 00:18:45;;;;;;;11.07;7.38;;;12.00;99.90;;;;;;5058263;28;20041;-71
2022/04/23 00:21:11;;;;;;;11.40;7.32;;;12.00;99.90;;;;;;5063808;28;20139;-72
2022/04/23 00:23:36;;;;;;;13.07;7.60;;;12.00;99.90;;;;;;5057568;28;20029;-72
2022/04/23 00:26:02;;;;;;;13.13;7.68;;;11.90;99.90;;;;;;5057467;28;20032;-71
2022/04/23 00:28:28;;;;;;;11.13;7.60;;;11.90;99.90;;;;;;5057904;28;20031;-72
2022/04/23 00:30:53;;;;;;;10.55;7.65;;;11.90;99.90;;;;;;5058323;28;20018;-71
2022/04/23 00:33:20;;;;;;;12.10;7.38;;;11.90;99.90;;;;;;5057954;28;20460;-70
2022/04/23 00:35:48;;;;;;;10.95;7.72;;;11.90;99.90;;;;;;5058458;28;20067;-71
2022/04/23 00:38:16;;;;;;;12.27;8.00;;;11.80;99.90;;;;;;5057988;28;20032;-71
2022/04/23 00:40:43;;;;;;;12.95;7.50;;;11.80;99.90;;;;;;5057464;28;20025;-71
2022/04/23 00:43:36;;;;;;;13.50;7.70;;;11.70;99.90;;;;;;5058422;28;20025;-71
2022/04/23 00:46:03;;;;;;;10.23;7.40;;;11.70;99.90;;;;;;5057430;28;20036;-71
2022/04/23 00:48:30;;;;;;;12.63;7.50;;;11.70;99.90;;;;;;5039651;28;20026;-70
2022/04/23 00:50:59;;;;;;;11.77;7.40;;;11.70;99.90;;;;;;5057082;28;20358;-71
2022/04/23 00:53:25;;;;;;;10.32;7.80;;;11.70;99.90;;;;;;5057305;28;20496;-71
2022/04/23 00:55:54;;;;;;;12.93;7.78;;;11.60;99.90;;;;;;5056905;28;20025;-70
2022/04/23 00:58:20;;;;;;;14.45;8.25;;;11.60;99.90;;;;;;5057245;28;20029;-70
2022/04/23 01:00:47;;;;;;;11.65;8.07;;;11.60;99.90;;;;;;5056775;28;20013;-71
2022/04/23 01:03:13;;;;;;;11.90;8.57;;;11.60;99.90;;;;;;5056824;28;20029;-70
2022/04/23 01:05:46;;;;;;;13.60;8.82;;;11.60;99.90;;;;;;5057243;28;20389;-70
2022/04/23 01:08:18;;;;;;;15.07;9.23;;;11.60;99.90;;;;;;5057068;28;20033;-70
2022/04/23 01:10:45;;;;;;;13.05;9.73;;;11.50;99.90;;;;;;5056814;28;20032;-70
2022/04/23 01:13:12;;;;;;;13.73;9.32;;;11.50;99.90;;;;;;5056703;28;20032;-70
2022/04/23 01:15:37;;;;;;;14.10;9.13;;;11.50;99.90;;;;;;5057555;28;20052;-71
2022/04/23 01:18:04;;;;;;;12.35;9.18;;;11.40;99.90;;;;;;5057639;28;20021;-71
2022/04/23 01:20:29;;;;;;;12.57;8.82;;;11.40;99.90;;;;;;5057325;28;20457;-71
2022/04/23 01:22:55;;;;;;;16.35;9.82;;;11.40;99.90;;;;;;5057550;28;20017;-70
2022/04/23 01:25:22;;;;;;;12.65;9.82;;;11.40;99.90;;;;;;5056874;28;20033;-70
2022/04/23 01:27:50;;;;;;;13.27;9.25;;;11.30;99.90;;;;;;5057328;28;20037;-70
2022/04/23 01:30:16;;;;;;;16.58;9.38;;;11.30;99.90;;;;;;5058121;28;20028;-71
2022/04/23 01:32:42;;;;;;;14.65;9.68;;;11.30;99.90;;;;;;5040285;28;20040;-71
2022/04/23 01:35:08;;;;;;;15.80;10.45;;;11.30;99.90;;;;;;5057297;28;20029;-71
2022/04/23 01:37:34;;;;;;;17.45;10.45;;;11.30;99.90;;;;;;5056953;28;20051;-70
2022/04/23 01:39:59;;;;;;;14.80;10.43;;;11.30;99.90;;;;;;5057330;28;20039;-71
2022/04/23 01:42:25;;;;;;;15.90;10.52;;;11.20;99.90;;;;;;5056651;28;20028;-71
2022/04/23 01:44:52;;;;;;;15.45;9.68;;;11.20;99.90;;;;;;5056271;28;20158;-70
2022/04/23 01:47:18;;;;;;;15.60;10.23;;;11.20;99.90;;;;;;5055285;28;20067;-72
2022/04/23 01:49:44;;;;;;;14.20;10.55;;;11.20;99.90;;;;;;5055979;28;20396;-71
2022/04/23 01:52:10;;;;;;;14.30;10.52;;;11.20;99.90;;;;;;5056441;28;20028;-72
2022/04/23 01:54:36;;;;;;;14.48;11.20;;;11.10;99.90;;;;;;5056539;28;20075;-70
2022/04/23 01:57:03;;;;;;;16.02;10.65;;;11.10;99.90;;;;;;5056502;28;20028;-72
2022/04/23 01:59:30;;;;;;;15.77;11.18;;;11.10;99.90;;;;;;5056528;28;20021;-71
2022/04/23 02:01:55;;;;;;;15.18;10.68;;;11.10;99.90;;;;;;5057129;28;20017;-71
2022/04/23 02:04:21;;;;;;;19.48;11.88;;;11.10;99.90;;;;;;5056321;28;20069;-71
2022/04/23 02:06:47;;;;;;;18.58;11.52;;;11.10;99.90;;;;;;5056178;28;20021;-72
2022/04/23 02:09:13;;;;;;;17.88;11.73;;;11.00;99.90;;;;;;5055378;28;20036;-72
2022/04/23 02:11:38;;;;;;;15.65;11.70;;;11.10;99.90;;;;;;5055727;28;20028;-71
2022/04/23 02:14:05;;;;;;;17.50;11.90;;;11.00;99.90;;;;;;5054809;28;20111;-72
2022/04/23 02:16:32;;;;;;;16.55;11.55;;;11.00;99.90;;;;;;5055110;28;20017;-71
2022/04/23 02:18:58;;;;;;;19.48;11.82;;;11.00;99.90;;;;;;5054968;28;20441;-70
2022/04/23 02:21:27;;;;;;;16.38;12.13;;;10.90;99.90;;;;;;5055251;28;20031;-71
2022/04/23 02:23:53;;;;;;;21.55;12.68;;;10.90;99.90;;;;;;5055223;28;20041;-71
2022/04/23 02:26:22;;;;;;;19.77;13.02;;;10.90;99.90;;;;;;5055041;28;20461;-71
2022/04/23 02:28:49;;;;;;;17.92;11.70;;;10.90;99.90;;;;;;5055430;28;20460;-71
2022/04/23 02:31:14;;;;;;;18.20;13.77;;;10.90;99.90;;;;;;5055638;28;20028;-70
2022/04/23 02:33:40;;;;;;;24.08;14.98;;;10.90;99.90;;;;;;5055320;28;20025;-72
2022/04/23 02:36:06;;;;;;;21.20;15.43;;;10.90;99.90;;;;;;5055131;28;20060;-72
2022/04/23 02:38:33;;;;;;;22.42;15.40;;;10.90;99.90;;;;;;5055273;28;20040;-71
2022/04/23 02:40:58;;;;;;;19.85;14.95;;;10.80;99.90;;;;;;5055096;28;20477;-70
2022/04/23 02:43:24;;;;;;;21.80;15.65;;;10.80;99.90;;;;;;5055144;28;20021;-71
2022/04/23 02:45:49;;;;;;;21.05;14.82;;;10.80;99.90;;;;;;5037485;28;20024;-71
2022/04/23 02:48:15;;;;;;;22.85;14.60;;;10.80;99.90;;;;;;5054876;28;20389;-71
2022/04/23 02:50:41;;;;;;;25.75;15.00;;;10.80;99.90;;;;;;5055213;28;20116;-70
2022/04/23 02:53:08;;;;;;;22.45;15.10;;;10.70;99.90;;;;;;5054806;28;20087;-71
2022/04/23 02:55:35;;;;;;;21.05;14.88;;;10.80;99.90;;;;;;5055460;28;20527;-71
2022/04/23 02:58:07;;;;;;;23.48;14.70;;;10.70;99.90;;;;;;5055135;28;20021;-71
2022/04/23 03:00:33;;;;;;;20.70;14.85;;;10.80;99.90;;;;;;5037435;28;20091;-69
2022/04/23 03:02:59;;;;;;;22.48;15.73;;;10.80;99.90;;;;;;5055693;28;20025;-69
2022/04/23 03:05:26;;;;;;;25.92;15.73;;;10.80;99.90;;;;;;5054983;28;20021;-71
2022/04/23 03:07:53;;;;;;;23.75;16.42;;;10.80;99.90;;;;;;5055059;28;20493;-70
2022/04/23 03:10:20;;;;;;;23.48;16.15;;;10.80;99.90;;;;;;5055747;28;20114;-69
2022/04/23 03:12:46;;;;;;;23.33;15.27;;;10.80;99.90;;;;;;5054735;28;20021;-69
2022/04/23 03:15:15;;;;;;;24.17;16.30;;;10.80;99.90;;;;;;5055250;28;20040;-70
2022/04/23 03:17:41;;;;;;;24.15;16.77;;;10.80;99.90;;;;;;5055292;28;20033;-69
2022/04/23 03:20:08;;;;;;;21.90;15.45;;;10.80;99.90;;;;;;5055382;28;20052;-73
2022/04/23 03:22:34;;;;;;;27.13;16.55;;;10.80;99.90;;;;;;5055529;28;20039;-71
2022/04/23 03:25:00;;;;;;;25.77;16.98;;;10.80;99.90;;;;;;5055396;28;20057;-71
2022/04/23 03:27:25;;;;;;;23.23;16.55;;;10.80;99.90;;;;;;5055057;28;20112;-71
2022/04/23 03:29:51;;;;;;;23.83;17.02;;;10.80;99.90;;;;;;5055209;28;20017;-71
2022/04/23 03:32:17;;;;;;;23.98;17.13;;;10.80;99.90;;;;;;5054377;28;20559;-70
2022/04/23 03:34:43;;;;;;;24.50;16.92;;;10.80;99.90;;;;;;5054154;28;20033;-70
2022/04/23 03:37:09;;;;;;;25.67;17.55;;;10.80;99.90;;;;;;5054262;28;20056;-72
2022/04/23 03:39:36;;;;;;;26.65;17.17;;;10.80;99.90;;;;;;5053810;28;20078;-70
2022/04/23 03:42:02;;;;;;;24.67;17.75;;;10.80;99.90;;;;;;5053874;28;20124;-72
2022/04/23 03:44:31;;;;;;;25.48;18.58;;;10.70;99.90;;;;;;5054366;28;20041;-70
2022/04/23 03:46:58;;;;;;;27.50;19.00;;;10.80;99.90;;;;;;5053654;28;20555;-71
2022/04/23 03:49:24;;;;;;;27.35;18.95;;;10.80;99.90;;;;;;5052973;28;20021;-70
2022/04/23 03:51:50;;;;;;;27.10;18.90;;;10.80;99.90;;;;;;5053713;28;20427;-70
2022/04/23 03:54:17;;;;;;;31.63;20.42;;;10.70;99.90;;;;;;5053758;28;20029;-70
2022/04/23 03:56:42;;;;;;;28.13;19.40;;;10.80;99.90;;;;;;5054573;28;20114;-71
2022/04/23 03:59:08;;;;;;;29.35;20.20;;;10.80;99.90;;;;;;5054351;28;20462;-70
2022/04/23 04:01:34;;;;;;;30.13;20.88;;;10.80;99.90;;;;;;5054225;28;20021;-70
2022/04/23 04:04:00;;;;;;;29.52;20.50;;;10.80;99.90;;;;;;5053464;28;20042;-70
2022/04/23 04:06:26;;;;;;;32.67;20.88;;;10.80;99.90;;;;;;5053311;28;20055;-71
2022/04/23 04:08:53;;;;;;;30.00;20.17;;;10.70;99.90;;;;;;5052946;28;20033;-71
2022/04/23 04:11:19;;;;;;;34.05;21.17;;;10.70;99.90;;;;;;5054965;28;20030;-71
2022/04/23 04:13:44;;;;;;;29.02;19.92;;;10.70;99.90;;;;;;5054320;28;20040;-71
2022/04/23 04:16:12;;;;;;;31.60;20.33;;;10.70;99.90;;;;;;5054341;28;20033;-72
2022/04/23 04:18:37;;;;;;;30.27;21.02;;;10.60;99.90;;;;;;5053372;28;20080;-70
2022/04/23 04:21:03;;;;;;;29.33;20.27;;;10.60;99.90;;;;;;5053664;28;20094;-71
2022/04/23 04:23:29;;;;;;;33.08;21.10;;;10.50;99.90;;;;;;5053589;28;20365;-70
2022/04/23 04:25:54;;;;;;;31.30;20.83;;;10.50;99.90;;;;;;5035189;28;20028;-72
2022/04/23 04:28:20;;;;;;;31.52;20.83;;;10.50;99.90;;;;;;5054138;28;20246;-70
2022/04/23 04:33:31;;;;;;;32.50;22.10;;;10.50;99.90;;;;;;5054249;28;20036;-70
2022/04/23 04:35:56;;;;;;;31.05;21.58;;;10.50;99.90;;;;;;5036455;28;20021;-71
2022/04/23 04:38:22;;;;;;;32.92;22.20;;;10.50;99.90;;;;;;5053929;28;20523;-71
2022/04/23 04:40:48;;;;;;;32.58;22.20;;;10.50;99.90;;;;;;5054122;28;20029;-71
2022/04/23 04:43:13;;;;;;;32.53;22.50;;;10.50;99.90;;;;;;5054360;28;20024;-71
2022/04/23 04:45:39;;;;;;;36.28;23.00;;;10.50;99.90;;;;;;5055094;28;20485;-70
2022/04/23 04:48:05;;;;;;;33.08;22.00;;;10.50;99.90;;;;;;5036584;28;20028;-71
2022/04/23 04:50:31;;;;;;;36.65;23.70;;;10.50;99.90;;;;;;5053841;28;20017;-70
2022/04/23 04:52:57;;;;;;;34.90;23.52;;;10.50;99.90;;;;;;5053216;28;20026;-70
2022/04/23 04:55:23;;;;;;;37.45;24.85;;;10.50;99.90;;;;;;5053086;28;20044;-70
2022/04/23 04:57:49;;;;;;;37.60;24.88;;;10.50;99.90;;;;;;5052706;28;20074;-71
2022/04/23 05:00:16;;;;;;;35.22;24.70;;;10.50;99.90;;;;;;5055845;28;20017;-72
2022/04/23 05:02:41;;;;;;;39.03;25.05;;;10.50;99.90;;;;;;5039317;28;20495;-70
2022/04/23 05:05:07;;;;;;;40.85;25.75;;;10.50;99.90;;;;;;5057007;28;20029;-71
2022/04/23 05:07:33;;;;;;;39.30;26.33;;;10.50;99.90;;;;;;5057205;28;20554;-71
2022/04/23 05:10:00;;;;;;;36.92;25.35;;;10.50;99.90;;;;;;5056945;28;20017;-71
2022/04/23 05:12:26;;;;;;;36.88;24.40;;;10.60;99.90;;;;;;5075738;28;20035;-71
2022/04/23 05:14:52;;;;;;;37.85;24.85;;;10.50;99.90;;;;;;5076940;28;20063;-73
2022/04/23 05:17:17;;;;;;;39.47;26.00;;;10.60;99.90;;;;;;5076906;28;20028;-70
2022/04/23 05:19:43;;;;;;;36.33;25.58;;;10.60;99.90;;;;;;5076064;28;20054;-72
2022/04/23 05:22:08;;;;;;;38.95;27.55;;;10.60;99.90;;;;;;5077568;28;20016;-72
2022/04/23 05:24:34;;;;;;;39.97;27.23;;;10.60;99.90;;;;;;5062312;28;20673;-72
2022/04/23 05:26:59;;;;;;;40.45;27.20;;;10.60;99.90;;;;;;5068972;28;20024;-71
2022/04/23 05:29:25;;;;;;;37.28;26.92;;;10.70;99.90;;;;;;5075703;28;20031;-72
2022/04/23 05:31:50;;;;;;;37.95;26.83;;;10.70;99.90;;;;;;5074873;28;20013;-73
2022/04/23 05:34:16;;;;;;;38.33;26.73;;;10.70;99.90;;;;;;5072961;28;20021;-71
2022/04/23 05:36:41;;;;;;;40.97;26.48;;;10.70;99.90;;;;;;5074689;28;20028;-71
2022/04/23 05:39:07;;;;;;;42.40;28.52;;;10.70;99.90;;;;;;5069263;28;20056;-72
2022/04/23 05:41:32;;;;;;;39.00;27.02;;;10.80;99.90;;;;;;5071022;28;20029;-72
2022/04/23 05:43:58;;;;;;;41.53;26.05;;;10.80;99.90;;;;;;5072465;28;20039;-73
2022/04/23 05:46:24;;;;;;;42.22;27.92;;;10.80;99.90;;;;;;5071994;28;20016;-71
2022/04/23 05:48:49;;;;;;;39.55;27.73;;;10.80;99.90;;;;;;5052449;28;20088;-72
2022/04/23 05:51:15;;;;;;;41.42;27.65;;;10.80;99.90;;;;;;5074130;28;20432;-72
2022/04/23 05:53:41;;;;;;;41.00;27.70;;;10.90;99.90;;;;;;5075570;28;20056;-72
2022/04/23 05:56:07;;;;;;;42.88;28.88;;;10.80;99.90;;;;;;5075538;28;20023;-73
2022/04/23 05:58:36;;;;;;;42.03;28.92;;;10.80;99.90;;;;;;5075575;28;20455;-71
2022/04/23 06:01:03;;;;;;;38.70;27.85;;;10.90;99.90;;;;;;5075682;28;20196;-71
2022/04/23 06:03:28;;;;;;;41.80;28.20;;;10.90;99.90;;;;;;5076416;28;20104;-72
2022/04/23 06:05:54;;;;;;;44.35;28.35;;;10.90;99.90;;;;;;5076330;28;20064;-71
2022/04/23 06:08:20;;;;;;;44.40;28.42;;;10.90;99.90;;;;;;5075767;28;20125;-72
2022/04/23 06:10:46;;;;;;;41.60;28.25;;;10.90;99.90;;;;;;5073045;28;20383;-72
2022/04/23 06:13:12;;;;;;;41.38;28.75;;;10.90;99.90;;;;;;5074853;28;20044;-71
2022/04/23 06:15:37;;;;;;;41.63;28.75;;;11.00;99.90;;;;;;5074281;28;20032;-71
2022/04/23 06:18:03;;;;;;;40.90;27.63;;;11.00;99.90;;;;;;5074333;28;20510;-72
2022/04/23 06:20:29;;;;;;;42.80;28.67;;;11.10;99.90;;;;;;5073080;28;20028;-70
2022/04/23 06:22:54;;;;;;;41.28;28.88;;;11.10;99.90;;;;;;5072367;28;20329;-72
2022/04/23 06:25:20;;;;;;;41.85;29.60;;;11.10;99.90;;;;;;5071193;28;20048;-72
2022/04/23 06:27:45;;;;;;;38.42;27.52;;;11.10;99.90;;;;;;5068450;28;20017;-72
2022/04/23 06:30:11;;;;;;;40.42;27.55;;;11.10;99.90;;;;;;5053268;28;20477;-70
2022/04/23 06:32:39;;;;;;;43.95;28.45;;;11.20;99.90;;;;;;5074188;28;20013;-71
2022/04/23 06:35:06;;;;;;;41.13;28.45;;;11.20;99.90;;;;;;5071848;28;20097;-71
2022/04/23 06:37:47;;;;;;;42.92;28.70;;;11.20;99.90;;;;;;5071849;28;20027;-71
2022/04/23 06:40:13;;;;;;;39.78;27.73;;;11.30;99.90;;;;;;5070797;28;20016;-71
2022/04/23 06:42:40;;;;;;;40.90;28.85;;;11.30;99.90;;;;;;5072126;28;20029;-72
2022/04/23 06:45:06;;;;;;;40.28;28.25;;;11.30;99.90;;;;;;5073582;28;20032;-70
2022/04/23 06:47:32;;;;;;;40.78;28.17;;;11.40;99.90;;;;;;5072050;28;20420;-70
2022/04/23 06:49:59;;;;;;;37.88;27.15;;;11.50;99.90;;;;;;5071321;28;20029;-70
2022/04/23 06:52:25;;;;;;;41.38;27.83;;;11.50;99.90;;;;;;5070796;28;20074;-72
2022/04/23 06:54:54;;;;;;;39.72;27.83;;;11.60;99.90;;;;;;5073073;28;20123;-71
2022/04/23 06:57:24;;;;;;;39.10;26.42;;;11.60;99.90;;;;;;5073329;28;20033;-72
2022/04/23 06:59:53;;;;;;;39.20;27.27;;;11.70;99.90;;;;;;5047164;28;20050;-71
2022/04/23 07:02:19;;;;;;;37.75;27.88;;;11.70;99.90;;;;;;5070454;28;20035;-71
2022/04/23 07:04:45;;;;;;;43.17;27.50;;;11.80;99.90;;;;;;5069071;28;20032;-73
2022/04/23 07:07:11;;;;;;;37.13;26.15;;;11.80;99.90;;;;;;5054695;28;20048;-70
2022/04/23 07:09:37;;;;;;;40.63;25.85;;;11.90;99.90;;;;;;5074026;28;20044;-71
2022/04/23 07:12:05;;;;;;;35.13;25.67;;;12.00;99.90;;;;;;5074143;28;20024;-70
2022/04/23 07:14:31;;;;;;;43.17;26.98;;;12.00;99.90;;;;;;5074090;28;20025;-71
2022/04/23 07:16:57;;;;;;;35.67;25.75;;;12.10;99.90;;;;;;5077256;28;20025;-70
2022/04/23 07:19:23;;;;;;;33.10;25.50;;;12.30;99.90;;;;;;5078427;28;20106;-70
2022/04/23 07:21:48;;;;;;;36.05;25.15;;;12.30;99.90;;;;;;5076357;28;20507;-70
2022/04/23 07:24:15;;;;;;;34.97;24.25;;;12.40;99.90;;;;;;5076939;28;20024;-70
2022/04/23 07:26:41;;;;;;;34.33;24.70;;;12.50;99.90;;;;;;5077299;28;20039;-70
2022/04/23 07:29:10;;;;;;;35.30;24.73;;;12.60;99.90;;;;;;5078480;28;20078;-70
2022/04/23 07:31:37;;;;;;;31.75;23.23;;;12.70;99.90;;;;;;5070979;28;20070;-71
2022/04/23 07:39:32;;;;;;;34.38;23.42;;;12.90;99.90;;;;;;5073696;28;20059;-71
2022/04/23 07:41:58;;;;;;;29.52;22.67;;;13.00;99.90;;;;;;5069759;28;20021;-71
2022/04/23 07:44:24;;;;;;;31.17;22.38;;;13.10;99.90;;;;;;5071251;28;20021;-71
2022/04/23 07:46:50;;;;;;;31.83;22.85;;;13.20;99.90;;;;;;5070652;28;20009;-71
2022/04/23 07:49:16;;;;;;;32.80;23.27;;;13.30;99.90;;;;;;5074395;28;20017;-71
2022/04/23 07:51:42;;;;;;;30.77;22.15;;;13.40;99.90;;;;;;5070353;28;20029;-71
2022/04/23 07:54:08;;;;;;;29.10;21.50;;;13.60;99.90;;;;;;5063819;28;20473;-71
2022/04/23 07:56:35;;;;;;;30.95;22.05;;;13.60;99.90;;;;;;5069077;28;20020;-71
2022/04/23 07:59:00;;;;;;;30.10;22.35;;;13.70;99.90;;;;;;5075567;28;20353;-72
2022/04/23 08:01:26;;;;;;;30.50;22.50;;;13.90;99.90;;;;;;5073342;28;20017;-70
2022/04/23 08:03:51;;;;;;;28.92;21.48;;;13.90;99.90;;;;;;5074300;28;20105;-72
2022/04/23 08:06:17;;;;;;;30.83;22.00;;;14.00;99.90;;;;;;5052464;28;20035;-72
2022/04/23 08:08:43;;;;;;;28.67;21.85;;;14.10;99.90;;;;;;5039895;28;20039;-72
2022/04/23 08:11:09;;;;;;;31.63;22.05;;;14.20;99.90;;;;;;5065597;28;20048;-73
2022/04/23 08:13:34;;;;;;;29.80;22.05;;;14.30;99.90;;;;;;5065777;28;20430;-72
2022/04/23 08:16:00;;;;;;;31.58;22.73;;;14.40;99.90;;;;;;5072042;28;20476;-72
2022/04/23 08:18:27;;;;;;;29.65;22.02;;;14.60;99.90;;;;;;5074567;28;20100;-72
2022/04/23 08:20:52;;;;;;;29.13;22.48;;;14.70;99.90;;;;;;5059802;28;20448;-71
2022/04/23 08:23:19;;;;;;;31.63;20.90;;;14.70;99.90;;;;;;5074972;28;20035;-73
2022/04/23 08:25:46;;;;;;;31.70;21.50;;;14.80;99.90;;;;;;5073053;28;20452;-71
2022/04/23 08:30:56;;;;;;;28.02;21.08;;;14.90;99.90;;;;;;5072567;28;20039;-72
2022/04/23 08:33:22;;;;;;;28.52;21.10;;;15.00;99.90;;;;;;5054597;28;20509;-73
2022/04/23 08:35:47;;;;;;;30.30;21.85;;;15.10;99.90;;;;;;5076315;28;20032;-72
2022/04/23 08:38:13;;;;;;;27.02;20.50;;;15.10;99.90;;;;;;5076806;28;20024;-72
2022/04/23 08:40:44;;;;;;;28.10;21.25;;;15.20;99.90;;;;;;5058838;28;20050;-72
2022/04/23 08:43:10;;;;;;;26.75;21.23;;;15.30;99.90;;;;;;5076392;28;20035;-72
2022/04/23 08:45:37;;;;;;;24.92;20.00;;;15.30;99.90;;;;;;5076766;28;20108;-72
2022/04/23 08:48:14;;;;;;;26.15;20.55;;;15.40;99.90;;;;;;5075950;28;20024;-72
2022/04/23 08:50:42;;;;;;;26.90;20.95;;;15.50;99.90;;;;;;5076740;28;20020;-72
2022/04/23 08:53:17;;;;;;;28.23;21.15;;;15.60;99.90;;;;;;5077260;28;20439;-72
2022/04/23 08:55:46;;;;;;;;;;;15.70;99.90;;;;;;5073462;28;20029;-72
2022/04/23 08:58:13;;;;;;;25.95;19.95;;;15.80;99.90;;;;;;5076663;28;19908;-73
2022/04/23 09:00:39;;;;;;;26.55;20.27;;;15.80;99.90;;;;;;5077804;28;20029;-73
2022/04/23 09:03:04;;;;;;;27.70;20.55;;;15.90;99.90;;;;;;5079039;28;20016;-72
2022/04/23 09:05:31;;;;;;;28.75;20.45;;;15.90;99.90;;;;;;5076531;28;20036;-71
2022/04/23 09:07:57;;;;;;;27.92;20.58;;;16.10;99.90;;;;;;5077708;28;20052;-72
2022/04/23 09:10:41;;;;;;;27.25;20.70;;;16.10;99.90;;;;;;5080417;28;20430;-72
2022/04/23 09:13:07;;;;;;;28.08;19.95;;;16.20;99.90;;;;;;5080552;28;20051;-71
2022/04/23 09:24:10;;;;;;;28.88;18.95;;;16.60;99.90;;;;;;5063721;28;20047;-73
2022/04/23 09:26:39;;;;;;;23.92;19.42;;;16.80;99.90;;;;;;5062804;28;20020;-73
2022/04/23 09:29:20;;;;;;;27.50;20.25;;;16.90;99.90;;;;;;5075430;28;20032;-71
2022/04/23 09:31:45;;;;;;;26.73;19.33;;;17.10;99.90;;;;;;5064850;28;20066;-69
2022/04/23 09:34:18;;;;;;;26.35;19.65;;;17.10;99.90;;;;;;5078187;28;20433;-74
2022/04/23 09:36:56;;;;;;;25.33;18.63;;;17.10;99.90;;;;;;5074557;28;20480;-71
2022/04/23 09:39:34;;;;;;;27.70;19.05;;;17.20;99.90;;;;;;5058434;28;20059;-74
2022/04/23 09:42:13;;;;;;;26.02;18.52;;;17.20;99.30;;;;;;5057812;28;20025;-73
2022/04/23 09:44:39;;;;;;;26.58;19.38;;;17.20;98.50;;;;;;5081451;28;20404;-73
2022/04/23 09:47:05;;;;;;;25.55;19.50;;;17.20;98.30;;;;;;5064958;28;20062;-73
2022/04/23 09:49:31;;;;;;;25.40;18.65;;;17.20;98.40;;;;;;5034442;28;20088;-74
2022/04/23 09:52:04;;;;;;;22.55;18.77;;;17.20;97.90;;;;;;5070895;28;20059;-73
2022/04/23 09:54:31;;;;;;;25.13;19.13;;;17.30;97.90;;;;;;5069228;28;20040;-75
2022/04/23 09:56:58;;;;;;;24.80;19.98;;;17.20;97.40;;;;;;5060994;28;20071;-75
2022/04/23 09:59:23;;;;;;;32.70;19.50;;;17.10;97.10;;;;;;5069721;28;20070;-73
2022/04/23 10:01:50;;;;;;;24.38;19.92;;;17.10;97.30;;;;;;5069544;28;20396;-73
2022/04/23 10:04:21;;;;;;;25.77;20.40;;;17.00;97.70;;;;;;5068021;28;20020;-74
2022/04/23 10:06:50;;;;;;;24.63;18.58;;;17.10;97.20;;;;;;5065898;28;20388;-73
2022/04/23 10:09:19;;;;;;;29.60;19.98;;;17.00;97.10;;;;;;5066822;28;20017;-73
2022/04/23 10:11:48;;;;;;;26.80;20.45;;;17.00;97.10;;;;;;5070599;28;20100;-74
2022/04/23 10:14:22;;;;;;;24.20;19.55;;;16.90;97.70;;;;;;5070278;28;20078;-73
2022/04/23 10:16:49;;;;;;;25.80;19.27;;;16.90;97.80;;;;;;5067444;28;20060;-74
2022/04/23 10:19:19;;;;;;;28.92;20.83;;;17.00;97.50;;;;;;5054690;28;20064;-73
2022/04/23 10:21:53;;;;;;;27.75;20.45;;;17.00;97.90;;;;;;5071337;28;20499;-73
2022/04/23 10:24:35;;;;;;;32.45;20.42;;;17.10;97.60;;;;;;5071328;28;20020;-71
2022/04/23 10:27:10;;;;;;;27.70;20.23;;;17.20;97.50;;;;;;5072219;28;20027;-72
2022/04/23 10:29:36;;;;;;;32.53;20.70;;;17.30;97.70;;;;;;5070494;28;20032;-73
2022/04/23 10:32:11;;;;;;;31.05;20.67;;;17.40;97.30;;;;;;5069000;28;20025;-72
2022/04/23 10:34:37;;;;;;;25.25;20.92;;;17.50;96.50;;;;;;5067862;28;20037;-72
2022/04/23 10:37:28;;;;;;;29.88;20.45;;;17.60;96.30;;;;;;5070114;28;20037;-71
2022/04/23 10:39:53;;;;;;;24.42;19.23;;;17.70;96.10;;;;;;5070610;28;20021;-72
2022/04/23 10:42:23;;;;;;;27.90;20.58;;;17.80;95.50;;;;;;5069190;28;20032;-74
2022/04/23 10:44:50;;;;;;;26.42;19.88;;;17.90;94.50;;;;;;5071239;28;20032;-73
2022/04/23 10:47:35;;;;;;;25.13;19.85;;;18.00;94.20;;;;;;5067645;28;20031;-73
2022/04/23 10:50:13;;;;;;;28.48;19.55;;;18.00;93.90;;;;;;5065183;28;20093;-72
2022/04/23 10:52:39;;;;;;;24.65;20.08;;;18.20;93.80;;;;;;5061746;28;20032;-74
2022/04/23 10:55:06;;;;;;;25.77;20.33;;;18.30;93.50;;;;;;5067289;28;20035;-70
2022/04/23 10:57:31;;;;;;;26.58;19.90;;;18.50;93.10;;;;;;5069570;28;20017;-72
2022/04/23 11:00:15;;;;;;;27.27;19.25;;;18.50;92.30;;;;;;5069269;28;20054;-72
2022/04/23 11:02:41;;;;;;;28.58;20.48;;;18.50;92.20;;;;;;5060630;28;20037;-72
2022/04/23 11:13:49;;;;;;;25.10;20.30;;;18.10;92.90;;;;;;5076899;28;20043;-72
2022/04/23 11:16:17;;;;;;;27.27;20.70;;;18.20;92.80;;;;;;5068502;28;20017;-72
2022/04/23 11:18:44;;;;;;;27.17;21.20;;;18.20;92.30;;;;;;5063031;28;20064;-73
2022/04/23 11:21:23;;;;;;;26.05;20.17;;;18.20;91.90;;;;;;5068174;28;20029;-73
2022/04/23 11:23:50;;;;;;;31.80;20.55;;;18.30;91.90;;;;;;5065903;28;20025;-73
2022/04/23 11:26:22;;;;;;;27.48;20.42;;;18.40;91.80;;;;;;5065000;28;20077;-73
2022/04/23 11:28:58;;;;;;;28.27;20.83;;;18.50;91.50;;;;;;5063441;28;20031;-72
2022/04/23 11:31:24;;;;;;;24.90;19.60;;;18.60;91.30;;;;;;5062779;28;20117;-72
2022/04/23 11:33:50;;;;;;;33.97;19.33;;;18.80;91.30;;;;;;5064188;28;20109;-74
2022/04/23 11:36:17;;;;;;;28.05;19.92;;;19.00;90.40;;;;;;5066266;28;20487;-72
2022/04/23 11:38:43;;;;;;;25.35;19.27;;;19.10;89.20;;;;;;5064021;28;20044;-72
2022/04/23 11:41:09;;;;;;;25.23;19.65;;;19.20;87.60;;;;;;5062938;28;20036;-72
2022/04/23 11:43:39;;;;;;;25.95;18.50;;;19.30;86.50;;;;;;5074847;28;20029;-71
2022/04/23 11:46:09;;;;;;;30.33;20.27;;;19.40;84.80;;;;;;5074455;28;20039;-73
2022/04/23 11:48:41;;;;;;;23.42;18.73;;;19.40;84.10;;;;;;5071847;28;20066;-73
2022/04/23 11:51:07;;;;;;;24.65;19.92;;;19.40;83.10;;;;;;5074125;28;20017;-73
2022/04/23 11:53:58;;;;;;;27.35;20.27;;;19.50;82.00;;;;;;5070071;28;20027;-72
2022/04/23 11:56:29;;;;;;;26.35;19.35;;;19.60;82.20;;;;;;5066434;28;20040;-73
2022/04/23 11:59:06;;;;;;;24.17;20.20;;;19.70;81.90;;;;;;5071328;28;20077;-73
2022/04/23 12:01:32;;;;;;;24.67;19.42;;;19.90;81.30;;;;;;5063499;28;20029;-73
2022/04/23 12:03:59;;;;;;;26.80;20.13;;;20.00;80.30;;;;;;5064586;28;20475;-73
2022/04/23 12:06:26;;;;;;;28.63;20.13;;;20.10;79.60;;;;;;5057856;28;20025;-72
2022/04/23 12:09:04;;;;;;;30.02;19.98;;;20.00;78.00;;;;;;5066056;28;20040;-73
2022/04/23 12:11:30;;;;;;;29.27;20.65;;;19.90;78.10;;;;;;5063840;28;20107;-72
2022/04/23 12:13:55;;;;;;;26.90;21.00;;;19.90;77.60;;;;;;5065941;28;20102;-72
2022/04/23 12:16:37;;;;;;;27.27;20.80;;;19.80;78.20;;;;;;5065011;28;20032;-71
2022/04/23 12:19:05;;;;;;;31.17;20.02;;;19.90;77.80;;;;;;5065789;28;20045;-73
2022/04/23 12:21:31;;;;;;;26.05;20.40;;;19.90;77.00;;;;;;5066019;28;20038;-73
2022/04/23 12:23:57;;;;;;;27.08;20.00;;;20.00;77.10;;;;;;5069825;28;20027;-72
2022/04/23 12:26:24;;;;;;;27.40;20.13;;;20.00;77.00;;;;;;5071361;28;20360;-72
2022/04/23 12:42:26;;;;;;;29.90;20.57;;;20.50;72.30;;;;;;5072437;28;20081;-73
2022/04/23 12:44:53;;;;;;;27.60;19.48;;;20.60;72.70;;;;;;5063598;28;20029;-73
2022/04/23 12:47:29;;;;;;;31.63;20.48;;;20.50;72.20;;;;;;5057808;28;20778;-72
2022/04/23 12:50:01;;;;;;;23.58;18.35;;;20.40;71.30;;;;;;5063477;28;20111;-72
2022/04/23 12:52:37;;;;;;;23.33;17.55;;;20.40;71.40;;;;;;5062301;28;20043;-71
2022/04/23 12:55:22;;;;;;;27.55;18.08;;;20.50;71.20;;;;;;5066066;28;20029;-72
2022/04/23 12:57:53;;;;;;;25.20;19.17;;;20.60;71.10;;;;;;5051646;28;20021;-71
2022/04/23 13:00:21;;;;;;;29.80;19.70;;;20.70;69.70;;;;;;5072475;28;20060;-72
2022/04/23 13:02:51;;;;;;;29.25;20.13;;;20.70;70.00;;;;;;5071727;28;20024;-72
2022/04/23 13:05:17;;;;;;;28.98;19.23;;;20.80;70.70;;;;;;5066116;28;20079;-72
2022/04/23 13:10:27;;;;;;;25.98;20.02;;;21.00;69.60;;;;;;5067355;28;20473;-72
2022/04/23 13:12:54;;;;;;;26.80;19.42;;;21.10;68.70;;;;;;5067117;28;20021;-72
2022/04/23 13:15:20;;;;;;;26.88;18.10;;;21.20;69.90;;;;;;5064839;28;20116;-72